Zim Alabama — V7VD5 — position and weather

sailwx.info

Track history (hours):
 
Tides and Currents Weather Stations Pressure Air Temp Water Temp Dewpoint Dewpoint Depression Visibility Wind Speed Wind Dir Waves Ship Positions

Zim Alabama

Last reported at 2017-Oct-17 09:30 UTC. Time now 2017-Oct-17 10:00 UTC.
Position N 32°07' W 081°08'.

Length 261 m; draft 10.4 m.

Type: Ship (hazmat cat C). MMSI: 538004094.

Date/timePositionNaut miles runAvg speedWind from/ knotsBaromVisibWave heightAir tempDewpointWater temp
2017-Oct-17 09:30N 32°07' W 081°08'1 1.2
2017-Oct-17 09:00N 32°07' W 081°08'3 6.4
2017-Oct-17 08:30N 32°05' W 081°05'4 8.3
2017-Oct-17 08:01N 32°06' W 081°00'712.8
2017-Oct-17 07:30N 32°02' W 080°54'612.7
2017-Oct-17 07:00N 31°60' W 080°47'611.8
2017-Oct-17 06:29N 31°57' W 080°41'4 9.2
2017-Oct-17 06:00N 31°57' W 080°35'4 6.8
2017-Oct-17 05:28N 31°57' W 080°31'5 8.8
2017-Oct-17 04:57N 31°58' W 080°26'35213.9
2017-Oct-16 03:42N 35°58' W 075°15'1614.7
2017-Oct-16 02:38N 36°13' W 075°20'214.8
2017-Oct-16 02:30N 36°15' W 075°21'714.7
2017-Oct-16 02:01N 36°22' W 075°23'3714.7
2017-Oct-15 23:29N 36°51' W 075°51'814.5
2017-Oct-15 22:57N 36°56' W 075°59'511.5
2017-Oct-15 22:31N 36°58' W 076°05'915.5
2017-Oct-15 21:55N 37°00' W 076°16'511.6
2017-Oct-15 21:28N 36°57' W 076°20'1 0.1
2017-Oct-15 10:09N 36°56' W 076°20'9 6.8
2017-Oct-15 08:52N 36°59' W 076°10'515.0
2017-Oct-15 08:30N 36°58' W 076°03'612.6
2017-Oct-15 08:00N 36°56' W 075°56'4 7.8
2017-Oct-15 07:30N 36°53' W 075°53'4210.4
2017-Oct-15 03:25N 37°13' W 075°05'614.6
2017-Oct-15 03:00N 37°18' W 075°01'13910.0
2017-Oct-14 13:07N 39°26' W 073°53'314.1
2017-Oct-14 12:55N 39°29' W 073°53'614.3
2017-Oct-14 12:30N 39°35' W 073°53'714.2
2017-Oct-14 11:59N 39°42' W 073°52'714.4
2017-Oct-14 11:30N 39°49' W 073°52'4212.5
2017-Oct-14 08:07N 40°31' W 073°59'213.0
2017-Oct-14 08:00N 40°32' W 074°01'713.2
2017-Oct-14 07:29N 40°38' W 074°03'3 6.9
2017-Oct-14 06:59N 40°39' W 074°08'2 3.3
2017-Oct-14 06:30N 40°40' W 074°08'0 0.3
2017-Oct-14 05:58N 40°40' W 074°08'0 0.0
2017-Oct-14 05:28N 40°40' W 074°08'0 0.0
2017-Oct-14 04:58N 40°40' W 074°08'0 0.0
2017-Oct-14 04:25N 40°40' W 074°08'0 0.0
2017-Oct-14 03:58N 40°40' W 074°08'0 0.0
2017-Oct-14 03:28N 40°40' W 074°08'0 0.0
2017-Oct-14 02:58N 40°40' W 074°08'0 0.0
2017-Oct-14 02:28N 40°40' W 074°08'0 0.0
2017-Oct-14 01:55N 40°40' W 074°08'0 0.0
2017-Oct-14 01:28N 40°40' W 074°08'0 0.0
2017-Oct-14 00:58N 40°40' W 074°08'0 0.0
2017-Oct-14 00:28N 40°40' W 074°08'0 0.0
2017-Oct-13 23:58N 40°40' W 074°08'0 0.0
2017-Oct-13 23:28N 40°40' W 074°08'0 0.0
2017-Oct-13 22:58N 40°40' W 074°08'0 0.0
2017-Oct-13 22:28N 40°40' W 074°08'0 0.0
2017-Oct-13 21:58N 40°40' W 074°08'0 0.0
2017-Oct-13 21:28N 40°40' W 074°08'0 0.0
2017-Oct-13 20:58N 40°40' W 074°08'0 0.0
2017-Oct-13 20:28N 40°40' W 074°08'0 0.0
2017-Oct-13 19:58N 40°40' W 074°08'0 0.0
2017-Oct-13 19:28N 40°40' W 074°08'0 0.0
2017-Oct-13 18:58N 40°40' W 074°08'0 0.0
2017-Oct-13 18:25N 40°40' W 074°08'0 0.0
2017-Oct-13 17:58N 40°40' W 074°08'0 0.0
2017-Oct-13 17:28N 40°40' W 074°08'0 0.0
2017-Oct-13 16:58N 40°40' W 074°08'0 0.0
2017-Oct-13 16:28N 40°40' W 074°08'0 0.0
2017-Oct-13 15:58N 40°40' W 074°08'0 0.0
2017-Oct-13 15:28N 40°40' W 074°09'0 0.0
2017-Oct-13 14:58N 40°40' W 074°09'0 0.0
2017-Oct-13 14:28N 40°40' W 074°08'0 0.0
2017-Oct-13 13:58N 40°40' W 074°08'0 0.0
2017-Oct-13 13:28N 40°40' W 074°08'0 0.0
2017-Oct-13 13:01N 40°40' W 074°09'0 0.0
2017-Oct-13 12:26N 40°40' W 074°08'0 0.0
2017-Oct-13 12:00N 40°40' W 074°08'0 0.0
2017-Oct-13 11:30N 40°40' W 074°08'0 0.0
2017-Oct-13 10:57N 40°40' W 074°08'0 0.0
2017-Oct-13 10:30N 40°40' W 074°08'0 0.0
2017-Oct-13 10:00N 40°40' W 074°08'1 2.9
2017-Oct-13 09:31N 40°39' W 074°09'3 5.3
2017-Oct-13 09:01N 40°39' W 074°06'2 4.2
2017-Oct-13 08:30N 40°38' W 074°03'612.0
2017-Oct-13 08:00N 40°32' W 074°01'714.7
2017-Oct-13 07:30N 40°28' W 073°53'510.3
2017-Oct-13 07:00N 40°26' W 073°47'714.0
2017-Oct-13 06:30N 40°27' W 073°37'2414.0
2017-Oct-13 04:48N 40°29' W 073°06'  
Track history (hours):
 
Tides and Currents Weather Stations Pressure Air Temp Water Temp Dewpoint Dewpoint Depression Visibility Wind Speed Wind Dir Waves Ship Positions

Zim Alabama

Last reported at 2017-Oct-17 09:30 UTC. Time now 2017-Oct-17 10:00 UTC.
Position N 32°07' W 081°08'.

Length 261 m; draft 10.4 m.

Type: Ship (hazmat cat C). MMSI: 538004094.

Date/timePositionNaut miles runAvg speedWind from/ knotsBaromVisibWave heightAir tempDewpointWater temp
2017-Oct-17 09:30N 32°07' W 081°08'1 1.2
2017-Oct-17 09:00N 32°07' W 081°08'3 6.4
2017-Oct-17 08:30N 32°05' W 081°05'4 8.3
2017-Oct-17 08:01N 32°06' W 081°00'712.8
2017-Oct-17 07:30N 32°02' W 080°54'612.7
2017-Oct-17 07:00N 31°60' W 080°47'611.8
2017-Oct-17 06:29N 31°57' W 080°41'4 9.2
2017-Oct-17 06:00N 31°57' W 080°35'4 6.8
2017-Oct-17 05:28N 31°57' W 080°31'5 8.8
2017-Oct-17 04:57N 31°58' W 080°26'35213.9
2017-Oct-16 03:42N 35°58' W 075°15'1614.7
2017-Oct-16 02:38N 36°13' W 075°20'214.8
2017-Oct-16 02:30N 36°15' W 075°21'714.7
2017-Oct-16 02:01N 36°22' W 075°23'3714.7
2017-Oct-15 23:29N 36°51' W 075°51'814.5
2017-Oct-15 22:57N 36°56' W 075°59'511.5
2017-Oct-15 22:31N 36°58' W 076°05'915.5
2017-Oct-15 21:55N 37°00' W 076°16'511.6
2017-Oct-15 21:28N 36°57' W 076°20'1 0.1
2017-Oct-15 10:09N 36°56' W 076°20'9 6.8
2017-Oct-15 08:52N 36°59' W 076°10'515.0
2017-Oct-15 08:30N 36°58' W 076°03'612.6
2017-Oct-15 08:00N 36°56' W 075°56'4 7.8
2017-Oct-15 07:30N 36°53' W 075°53'4210.4
2017-Oct-15 03:25N 37°13' W 075°05'614.6
2017-Oct-15 03:00N 37°18' W 075°01'13910.0
2017-Oct-14 13:07N 39°26' W 073°53'314.1
2017-Oct-14 12:55N 39°29' W 073°53'614.3
2017-Oct-14 12:30N 39°35' W 073°53'714.2
2017-Oct-14 11:59N 39°42' W 073°52'714.4
2017-Oct-14 11:30N 39°49' W 073°52'4212.5
2017-Oct-14 08:07N 40°31' W 073°59'213.0
2017-Oct-14 08:00N 40°32' W 074°01'713.2
2017-Oct-14 07:29N 40°38' W 074°03'3 6.9
2017-Oct-14 06:59N 40°39' W 074°08'2 3.3
2017-Oct-14 06:30N 40°40' W 074°08'0 0.3
2017-Oct-14 05:58N 40°40' W 074°08'0 0.0
2017-Oct-14 05:28N 40°40' W 074°08'0 0.0
2017-Oct-14 04:58N 40°40' W 074°08'0 0.0
2017-Oct-14 04:25N 40°40' W 074°08'0 0.0
2017-Oct-14 03:58N 40°40' W 074°08'0 0.0
2017-Oct-14 03:28N 40°40' W 074°08'0 0.0
2017-Oct-14 02:58N 40°40' W 074°08'0 0.0
2017-Oct-14 02:28N 40°40' W 074°08'0 0.0
2017-Oct-14 01:55N 40°40' W 074°08'0 0.0
2017-Oct-14 01:28N 40°40' W 074°08'0 0.0
2017-Oct-14 00:58N 40°40' W 074°08'0 0.0
2017-Oct-14 00:28N 40°40' W 074°08'0 0.0
2017-Oct-13 23:58N 40°40' W 074°08'0 0.0
2017-Oct-13 23:28N 40°40' W 074°08'0 0.0
2017-Oct-13 22:58N 40°40' W 074°08'0 0.0
2017-Oct-13 22:28N 40°40' W 074°08'0 0.0
2017-Oct-13 21:58N 40°40' W 074°08'0 0.0
2017-Oct-13 21:28N 40°40' W 074°08'0 0.0
2017-Oct-13 20:58N 40°40' W 074°08'0 0.0
2017-Oct-13 20:28N 40°40' W 074°08'0 0.0
2017-Oct-13 19:58N 40°40' W 074°08'0 0.0
2017-Oct-13 19:28N 40°40' W 074°08'0 0.0
2017-Oct-13 18:58N 40°40' W 074°08'0 0.0
2017-Oct-13 18:25N 40°40' W 074°08'0 0.0
2017-Oct-13 17:58N 40°40' W 074°08'0 0.0
2017-Oct-13 17:28N 40°40' W 074°08'0 0.0
2017-Oct-13 16:58N 40°40' W 074°08'0 0.0
2017-Oct-13 16:28N 40°40' W 074°08'0 0.0
2017-Oct-13 15:58N 40°40' W 074°08'0 0.0
2017-Oct-13 15:28N 40°40' W 074°09'0 0.0
2017-Oct-13 14:58N 40°40' W 074°09'0 0.0
2017-Oct-13 14:28N 40°40' W 074°08'0 0.0
2017-Oct-13 13:58N 40°40' W 074°08'0 0.0
2017-Oct-13 13:28N 40°40' W 074°08'0 0.0
2017-Oct-13 13:01N 40°40' W 074°09'0 0.0
2017-Oct-13 12:26N 40°40' W 074°08'0 0.0
2017-Oct-13 12:00N 40°40' W 074°08'0 0.0
2017-Oct-13 11:30N 40°40' W 074°08'0 0.0
2017-Oct-13 10:57N 40°40' W 074°08'0 0.0
2017-Oct-13 10:30N 40°40' W 074°08'0 0.0
2017-Oct-13 10:00N 40°40' W 074°08'1 2.9
2017-Oct-13 09:31N 40°39' W 074°09'3 5.3
2017-Oct-13 09:01N 40°39' W 074°06'2 4.2
2017-Oct-13 08:30N 40°38' W 074°03'612.0
2017-Oct-13 08:00N 40°32' W 074°01'714.7
2017-Oct-13 07:30N 40°28' W 073°53'510.3
2017-Oct-13 07:00N 40°26' W 073°47'714.0
2017-Oct-13 06:30N 40°27' W 073°37'2414.0
2017-Oct-13 04:48N 40°29' W 073°06'  

Dump ship's entire track history